Aérodrome :
LOGIN :

S'inscrire | Disclaimer

   EN    FR    IT 

 










Légende :    VFR   VFR Marginal   IFR   IFR Intensif   IFR Très Intensif
Visi : 
Plafond : 
>= 8 km
>= 3000ft
5 à 8 km
1000 à 3000 ft
1500m à 5 km
500 à 1000 ft
800 à 1500m
200 à 500 ft
< 800m
< 200 ft
Symboles :   Orages  Brouillard  Fortes neiges  Fortes précipitations  Vent > 20 kt
SIGMETs :   Divers  Orages  Givrage  Turbulence  Onde Orograph.  Cendres Volcan.







- Altitude de l'aérodrome : 240 ft
- Code IATA : VLC


LEVC - Valencia Manises

DERNIER METAR :
  • 181500Z 12006KT 9999 FEW020 13/01 Q1016 NOSIG

METARs EXPIRÉS :
  • 181430Z 13006KT 100V160 9999 FEW020 13/01 Q1017 NOSIG
  • 181400Z 21004KT 150V250 9999 FEW020 14/M00 Q1017 NOSIG
  • 181330Z VRB02KT 9999 FEW020 14/M00 Q1017 NOSIG
  • 181300Z VRB01KT 9999 FEW020 14/M00 Q1018 NOSIG
  • 181230Z VRB02KT 9999 FEW020 13/00 Q1018 NOSIG

TAF TAF LEVC
Valide du 18 à 12h jusqu'au 19 à 12h UTC


181100Z 1812/1912 VRB04KT 9999 FEW020 TX16/1813Z TN01/1906Z
TEMPO 1812/1817 17007KT
TEMPO 1820/1908 28005KT
Pas de NOTAMs connus pour ce terrain.



MET'MAP, la Météo Aéronautique d'un coup d'oeil ! - Copyright ORBIFLY Décembre 2007 - Disclaimer

ORBIFLY MET'MAP TEAM :

Programmation & Développement : Alexandra Zaïnal
Conception & Développement : Baudouin d'Aumeries
Co-Programmation & Développement : Marc-Olivier Méhu
Soutien technique & logistique : Manuel Goepfert

Contact : metmap@orbifly.com




SOURCES & CREDITS :

   NOAA